sensor_id;sensor_type;location;lat;lon;timestamp;P1;durP1;ratioP1;P2;durP2;ratioP2
56752;SDS011;42627;42.646;23.642;2022-07-29T00:02:01;9.93;;;5.85;;
56752;SDS011;42627;42.646;23.642;2022-07-29T00:04:01;10.32;;;5.32;;
56752;SDS011;42627;42.646;23.642;2022-07-29T00:06:02;10.52;;;5.63;;
56752;SDS011;42627;42.646;23.642;2022-07-29T00:08:03;10.15;;;4.88;;
56752;SDS011;42627;42.646;23.642;2022-07-29T00:10:04;10.35;;;5.82;;
56752;SDS011;42627;42.646;23.642;2022-07-29T00:12:05;11.73;;;5.80;;
56752;SDS011;42627;42.646;23.642;2022-07-29T00:14:06;10.98;;;5.47;;
56752;SDS011;42627;42.646;23.642;2022-07-29T00:16:15;8.65;;;5.40;;
56752;SDS011;42627;42.646;23.642;2022-07-29T00:18:16;10.50;;;5.45;;
56752;SDS011;42627;42.646;23.642;2022-07-29T00:20:17;10.13;;;5.50;;
56752;SDS011;42627;42.646;23.642;2022-07-29T00:22:18;12.40;;;5.05;;
56752;SDS011;42627;42.646;23.642;2022-07-29T00:24:20;10.18;;;5.10;;
56752;SDS011;42627;42.646;23.642;2022-07-29T00:26:25;11.80;;;6.00;;
56752;SDS011;42627;42.646;23.642;2022-07-29T00:28:45;9.55;;;5.13;;
56752;SDS011;42627;42.646;23.642;2022-07-29T00:33:08;8.75;;;4.57;;
56752;SDS011;42627;42.646;23.642;2022-07-29T00:35:09;10.50;;;5.32;;
56752;SDS011;42627;42.646;23.642;2022-07-29T00:37:29;9.25;;;5.40;;
56752;SDS011;42627;42.646;23.642;2022-07-29T00:39:29;8.70;;;4.50;;
56752;SDS011;42627;42.646;23.642;2022-07-29T00:41:30;8.18;;;5.35;;
56752;SDS011;42627;42.646;23.642;2022-07-29T00:43:31;8.75;;;4.80;;
56752;SDS011;42627;42.646;23.642;2022-07-29T00:45:50;11.30;;;5.72;;
56752;SDS011;42627;42.646;23.642;2022-07-29T00:47:50;10.05;;;5.78;;
56752;SDS011;42627;42.646;23.642;2022-07-29T00:49:51;10.60;;;5.97;;
56752;SDS011;42627;42.646;23.642;2022-07-29T00:51:52;10.13;;;5.80;;
56752;SDS011;42627;42.646;23.642;2022-07-29T00:53:53;10.63;;;6.57;;
56752;SDS011;42627;42.646;23.642;2022-07-29T00:56:09;9.05;;;5.45;;
56752;SDS011;42627;42.646;23.642;2022-07-29T01:03:10;11.27;;;5.47;;
56752;SDS011;42627;42.646;23.642;2022-07-29T01:05:10;9.38;;;5.15;;
56752;SDS011;42627;42.646;23.642;2022-07-29T01:07:12;11.93;;;5.97;;
56752;SDS011;42627;42.646;23.642;2022-07-29T01:09:13;9.88;;;5.20;;
56752;SDS011;42627;42.646;23.642;2022-07-29T01:11:15;8.63;;;5.05;;
56752;SDS011;42627;42.646;23.642;2022-07-29T01:13:16;9.70;;;5.68;;
56752;SDS011;42627;42.646;23.642;2022-07-29T01:15:34;12.15;;;5.93;;
56752;SDS011;42627;42.646;23.642;2022-07-29T01:21:55;12.43;;;6.00;;
56752;SDS011;42627;42.646;23.642;2022-07-29T01:31:42;13.85;;;6.40;;
56752;SDS011;42627;42.646;23.642;2022-07-29T01:33:57;10.68;;;6.10;;
56752;SDS011;42627;42.646;23.642;2022-07-29T01:36:01;10.73;;;6.38;;
56752;SDS011;42627;42.646;23.642;2022-07-29T01:38:12;11.50;;;5.68;;
56752;SDS011;42627;42.646;23.642;2022-07-29T01:40:22;8.23;;;5.60;;
56752;SDS011;42627;42.646;23.642;2022-07-29T01:42:38;9.25;;;5.25;;
56752;SDS011;42627;42.646;23.642;2022-07-29T01:44:57;11.00;;;5.75;;
56752;SDS011;42627;42.646;23.642;2022-07-29T01:47:17;11.35;;;5.50;;
56752;SDS011;42627;42.646;23.642;2022-07-29T01:49:25;9.40;;;5.30;;
56752;SDS011;42627;42.646;23.642;2022-07-29T01:51:31;10.55;;;5.63;;
56752;SDS011;42627;42.646;23.642;2022-07-29T01:53:43;11.65;;;6.72;;
56752;SDS011;42627;42.646;23.642;2022-07-29T01:58:39;14.48;;;7.65;;
56752;SDS011;42627;42.646;23.642;2022-07-29T02:01:00;12.43;;;7.03;;
56752;SDS011;42627;42.646;23.642;2022-07-29T02:03:07;13.13;;;6.60;;
56752;SDS011;42627;42.646;23.642;2022-07-29T02:05:12;11.48;;;6.78;;
56752;SDS011;42627;42.646;23.642;2022-07-29T02:07:17;10.57;;;6.15;;
56752;SDS011;42627;42.646;23.642;2022-07-29T02:09:19;10.07;;;6.05;;
56752;SDS011;42627;42.646;23.642;2022-07-29T02:11:22;10.48;;;5.38;;
56752;SDS011;42627;42.646;23.642;2022-07-29T02:13:22;13.27;;;6.07;;
56752;SDS011;42627;42.646;23.642;2022-07-29T02:17:49;10.80;;;6.28;;
56752;SDS011;42627;42.646;23.642;2022-07-29T02:19:56;8.75;;;5.00;;
56752;SDS011;42627;42.646;23.642;2022-07-29T02:21:59;10.85;;;6.00;;
56752;SDS011;42627;42.646;23.642;2022-07-29T02:24:01;10.65;;;5.25;;
56752;SDS011;42627;42.646;23.642;2022-07-29T02:31:25;10.15;;;5.55;;
56752;SDS011;42627;42.646;23.642;2022-07-29T02:33:29;10.48;;;5.43;;
56752;SDS011;42627;42.646;23.642;2022-07-29T02:35:31;10.02;;;5.80;;
56752;SDS011;42627;42.646;23.642;2022-07-29T02:37:32;9.93;;;5.22;;
56752;SDS011;42627;42.646;23.642;2022-07-29T02:39:33;9.88;;;6.07;;
56752;SDS011;42627;42.646;23.642;2022-07-29T02:41:41;12.52;;;5.75;;
56752;SDS011;42627;42.646;23.642;2022-07-29T02:43:51;10.43;;;5.20;;
56752;SDS011;42627;42.646;23.642;2022-07-29T02:45:54;10.85;;;4.88;;
56752;SDS011;42627;42.646;23.642;2022-07-29T02:47:58;7.63;;;4.53;;
56752;SDS011;42627;42.646;23.642;2022-07-29T02:51:05;10.00;;;5.07;;
56752;SDS011;42627;42.646;23.642;2022-07-29T02:52:44;10.32;;;5.13;;
56752;SDS011;42627;42.646;23.642;2022-07-29T03:00:46;8.27;;;4.43;;
56752;SDS011;42627;42.646;23.642;2022-07-29T03:02:50;7.68;;;4.03;;
56752;SDS011;42627;42.646;23.642;2022-07-29T03:04:55;9.30;;;5.13;;
56752;SDS011;42627;42.646;23.642;2022-07-29T03:06:58;7.65;;;4.18;;
56752;SDS011;42627;42.646;23.642;2022-07-29T03:09:00;6.45;;;3.88;;
56752;SDS011;42627;42.646;23.642;2022-07-29T03:11:01;8.77;;;4.35;;
56752;SDS011;42627;42.646;23.642;2022-07-29T03:13:03;7.05;;;3.65;;
56752;SDS011;42627;42.646;23.642;2022-07-29T03:15:06;8.35;;;3.70;;
56752;SDS011;42627;42.646;23.642;2022-07-29T03:17:08;7.13;;;3.40;;
56752;SDS011;42627;42.646;23.642;2022-07-29T03:19:09;6.93;;;3.90;;
56752;SDS011;42627;42.646;23.642;2022-07-29T03:21:10;6.85;;;3.90;;
56752;SDS011;42627;42.646;23.642;2022-07-29T03:23:11;6.43;;;3.72;;
56752;SDS011;42627;42.646;23.642;2022-07-29T03:25:30;7.50;;;4.47;;
56752;SDS011;42627;42.646;23.642;2022-07-29T03:27:43;6.25;;;3.88;;
56752;SDS011;42627;42.646;23.642;2022-07-29T03:29:59;9.27;;;4.15;;
56752;SDS011;42627;42.646;23.642;2022-07-29T03:32:01;8.70;;;3.88;;
56752;SDS011;42627;42.646;23.642;2022-07-29T03:34:03;6.80;;;4.03;;
56752;SDS011;42627;42.646;23.642;2022-07-29T03:36:03;7.38;;;3.72;;
56752;SDS011;42627;42.646;23.642;2022-07-29T03:38:04;7.38;;;3.47;;
56752;SDS011;42627;42.646;23.642;2022-07-29T03:40:05;6.93;;;3.67;;
56752;SDS011;42627;42.646;23.642;2022-07-29T03:42:10;5.93;;;3.40;;
56752;SDS011;42627;42.646;23.642;2022-07-29T03:46:24;7.72;;;3.25;;
56752;SDS011;42627;42.646;23.642;2022-07-29T03:48:28;5.78;;;3.17;;
56752;SDS011;42627;42.646;23.642;2022-07-29T03:50:32;7.25;;;3.97;;
56752;SDS011;42627;42.646;23.642;2022-07-29T03:52:34;5.93;;;3.35;;
56752;SDS011;42627;42.646;23.642;2022-07-29T03:54:35;5.22;;;3.33;;
56752;SDS011;42627;42.646;23.642;2022-07-29T03:56:40;7.25;;;3.88;;
56752;SDS011;42627;42.646;23.642;2022-07-29T04:01:23;5.65;;;3.15;;
56752;SDS011;42627;42.646;23.642;2022-07-29T04:05:57;7.28;;;3.63;;
56752;SDS011;42627;42.646;23.642;2022-07-29T04:08:03;5.90;;;3.30;;
56752;SDS011;42627;42.646;23.642;2022-07-29T04:10:04;6.95;;;3.75;;
56752;SDS011;42627;42.646;23.642;2022-07-29T04:12:05;7.28;;;3.75;;
56752;SDS011;42627;42.646;23.642;2022-07-29T04:14:07;6.63;;;3.30;;
56752;SDS011;42627;42.646;23.642;2022-07-29T04:16:08;8.10;;;3.65;;
56752;SDS011;42627;42.646;23.642;2022-07-29T04:20:34;6.40;;;3.35;;
56752;SDS011;42627;42.646;23.642;2022-07-29T04:22:35;8.30;;;4.35;;
56752;SDS011;42627;42.646;23.642;2022-07-29T04:24:35;6.50;;;3.55;;
56752;SDS011;42627;42.646;23.642;2022-07-29T04:26:36;6.82;;;3.65;;
56752;SDS011;42627;42.646;23.642;2022-07-29T04:34:30;5.72;;;3.20;;
56752;SDS011;42627;42.646;23.642;2022-07-29T04:36:31;6.60;;;3.30;;
56752;SDS011;42627;42.646;23.642;2022-07-29T04:38:31;5.40;;;2.83;;
56752;SDS011;42627;42.646;23.642;2022-07-29T04:40:33;5.25;;;2.78;;
56752;SDS011;42627;42.646;23.642;2022-07-29T04:42:34;5.18;;;2.75;;
56752;SDS011;42627;42.646;23.642;2022-07-29T04:44:34;4.93;;;2.70;;
56752;SDS011;42627;42.646;23.642;2022-07-29T04:46:35;4.47;;;2.40;;
56752;SDS011;42627;42.646;23.642;2022-07-29T04:48:54;4.85;;;2.75;;
56752;SDS011;42627;42.646;23.642;2022-07-29T04:50:55;4.85;;;2.63;;
56752;SDS011;42627;42.646;23.642;2022-07-29T04:52:56;6.32;;;2.67;;
56752;SDS011;42627;42.646;23.642;2022-07-29T04:54:57;6.35;;;3.38;;
56752;SDS011;42627;42.646;23.642;2022-07-29T04:56:57;5.65;;;2.67;;
56752;SDS011;42627;42.646;23.642;2022-07-29T05:04:19;5.72;;;2.88;;
56752;SDS011;42627;42.646;23.642;2022-07-29T05:06:20;5.35;;;2.90;;
56752;SDS011;42627;42.646;23.642;2022-07-29T05:08:20;6.38;;;3.38;;
56752;SDS011;42627;42.646;23.642;2022-07-29T05:10:22;5.50;;;3.15;;
56752;SDS011;42627;42.646;23.642;2022-07-29T05:12:23;5.95;;;3.53;;
56752;SDS011;42627;42.646;23.642;2022-07-29T05:14:24;5.65;;;2.90;;
56752;SDS011;42627;42.646;23.642;2022-07-29T05:16:25;5.32;;;3.03;;
56752;SDS011;42627;42.646;23.642;2022-07-29T05:18:31;6.80;;;3.65;;
56752;SDS011;42627;42.646;23.642;2022-07-29T05:20:31;4.78;;;2.65;;
56752;SDS011;42627;42.646;23.642;2022-07-29T05:22:34;4.47;;;2.65;;
56752;SDS011;42627;42.646;23.642;2022-07-29T05:24:34;6.55;;;2.78;;
56752;SDS011;42627;42.646;23.642;2022-07-29T05:26:35;4.15;;;2.63;;
56752;SDS011;42627;42.646;23.642;2022-07-29T05:28:51;4.85;;;3.05;;
56752;SDS011;42627;42.646;23.642;2022-07-29T05:31:13;5.50;;;2.38;;
56752;SDS011;42627;42.646;23.642;2022-07-29T05:33:40;5.50;;;3.30;;
56752;SDS011;42627;42.646;23.642;2022-07-29T05:35:44;6.35;;;2.80;;
56752;SDS011;42627;42.646;23.642;2022-07-29T05:37:45;6.70;;;3.03;;
56752;SDS011;42627;42.646;23.642;2022-07-29T05:39:46;6.20;;;3.67;;
56752;SDS011;42627;42.646;23.642;2022-07-29T05:41:47;5.10;;;2.97;;
56752;SDS011;42627;42.646;23.642;2022-07-29T05:43:47;4.20;;;2.60;;
56752;SDS011;42627;42.646;23.642;2022-07-29T05:45:48;5.22;;;2.92;;
56752;SDS011;42627;42.646;23.642;2022-07-29T05:49:59;8.52;;;3.20;;
56752;SDS011;42627;42.646;23.642;2022-07-29T05:52:00;4.97;;;2.67;;
56752;SDS011;42627;42.646;23.642;2022-07-29T05:54:01;4.60;;;2.85;;
56752;SDS011;42627;42.646;23.642;2022-07-29T05:56:04;3.70;;;2.35;;
56752;SDS011;42627;42.646;23.642;2022-07-29T05:58:05;3.60;;;2.03;;
56752;SDS011;42627;42.646;23.642;2022-07-29T06:00:06;4.82;;;2.50;;
56752;SDS011;42627;42.646;23.642;2022-07-29T06:02:08;4.30;;;2.45;;
56752;SDS011;42627;42.646;23.642;2022-07-29T06:09:16;5.28;;;3.13;;
56752;SDS011;42627;42.646;23.642;2022-07-29T06:11:17;4.35;;;2.63;;
56752;SDS011;42627;42.646;23.642;2022-07-29T06:13:18;5.78;;;3.25;;
56752;SDS011;42627;42.646;23.642;2022-07-29T06:15:18;5.57;;;3.22;;
56752;SDS011;42627;42.646;23.642;2022-07-29T06:17:19;4.97;;;3.15;;
56752;SDS011;42627;42.646;23.642;2022-07-29T06:19:20;4.40;;;2.75;;
56752;SDS011;42627;42.646;23.642;2022-07-29T06:21:21;4.60;;;2.83;;
56752;SDS011;42627;42.646;23.642;2022-07-29T06:23:21;4.63;;;2.78;;
56752;SDS011;42627;42.646;23.642;2022-07-29T06:25:22;4.00;;;2.25;;
56752;SDS011;42627;42.646;23.642;2022-07-29T06:27:22;4.47;;;2.33;;
56752;SDS011;42627;42.646;23.642;2022-07-29T06:29:23;4.47;;;2.55;;
56752;SDS011;42627;42.646;23.642;2022-07-29T06:31:24;3.75;;;2.08;;
56752;SDS011;42627;42.646;23.642;2022-07-29T06:33:24;4.10;;;2.28;;
56752;SDS011;42627;42.646;23.642;2022-07-29T06:35:25;4.10;;;2.22;;
56752;SDS011;42627;42.646;23.642;2022-07-29T06:37:26;4.40;;;2.20;;
56752;SDS011;42627;42.646;23.642;2022-07-29T06:39:26;4.50;;;2.28;;
56752;SDS011;42627;42.646;23.642;2022-07-29T06:41:27;3.67;;;2.20;;
56752;SDS011;42627;42.646;23.642;2022-07-29T06:43:32;4.47;;;2.15;;
56752;SDS011;42627;42.646;23.642;2022-07-29T06:45:34;4.68;;;2.08;;
56752;SDS011;42627;42.646;23.642;2022-07-29T06:47:34;4.30;;;1.77;;
56752;SDS011;42627;42.646;23.642;2022-07-29T06:49:35;3.33;;;2.00;;
56752;SDS011;42627;42.646;23.642;2022-07-29T06:51:36;3.30;;;2.13;;
56752;SDS011;42627;42.646;23.642;2022-07-29T06:53:36;3.40;;;1.85;;
56752;SDS011;42627;42.646;23.642;2022-07-29T06:55:38;3.35;;;2.35;;
56752;SDS011;42627;42.646;23.642;2022-07-29T06:57:38;4.00;;;1.80;;
56752;SDS011;42627;42.646;23.642;2022-07-29T06:59:39;3.22;;;1.80;;
56752;SDS011;42627;42.646;23.642;2022-07-29T07:01:40;3.53;;;1.90;;
56752;SDS011;42627;42.646;23.642;2022-07-29T07:03:42;3.17;;;1.88;;
56752;SDS011;42627;42.646;23.642;2022-07-29T07:05:43;2.95;;;1.98;;
56752;SDS011;42627;42.646;23.642;2022-07-29T07:07:47;3.58;;;2.00;;
56752;SDS011;42627;42.646;23.642;2022-07-29T07:09:49;3.67;;;1.80;;
56752;SDS011;42627;42.646;23.642;2022-07-29T07:14:15;3.80;;;2.22;;
56752;SDS011;42627;42.646;23.642;2022-07-29T07:16:15;3.47;;;1.80;;
56752;SDS011;42627;42.646;23.642;2022-07-29T07:18:16;3.90;;;2.10;;
56752;SDS011;42627;42.646;23.642;2022-07-29T07:20:18;3.10;;;1.90;;
56752;SDS011;42627;42.646;23.642;2022-07-29T07:22:19;3.28;;;2.08;;
56752;SDS011;42627;42.646;23.642;2022-07-29T07:24:20;4.55;;;2.25;;
56752;SDS011;42627;42.646;23.642;2022-07-29T07:26:20;3.75;;;1.95;;
56752;SDS011;42627;42.646;23.642;2022-07-29T07:28:24;4.07;;;2.13;;
56752;SDS011;42627;42.646;23.642;2022-07-29T07:30:34;2.95;;;1.70;;
56752;SDS011;42627;42.646;23.642;2022-07-29T07:32:35;4.68;;;1.80;;
56752;SDS011;42627;42.646;23.642;2022-07-29T07:34:36;3.75;;;2.20;;
56752;SDS011;42627;42.646;23.642;2022-07-29T07:36:38;3.67;;;1.98;;
56752;SDS011;42627;42.646;23.642;2022-07-29T07:43:21;4.18;;;2.00;;
56752;SDS011;42627;42.646;23.642;2022-07-29T07:45:22;3.88;;;2.13;;
56752;SDS011;42627;42.646;23.642;2022-07-29T07:47:23;3.17;;;1.58;;
56752;SDS011;42627;42.646;23.642;2022-07-29T07:49:24;4.03;;;2.10;;
56752;SDS011;42627;42.646;23.642;2022-07-29T07:51:25;3.08;;;1.90;;
56752;SDS011;42627;42.646;23.642;2022-07-29T07:53:25;3.85;;;1.92;;
56752;SDS011;42627;42.646;23.642;2022-07-29T07:55:26;3.25;;;1.52;;
56752;SDS011;42627;42.646;23.642;2022-07-29T07:57:27;3.05;;;1.83;;
56752;SDS011;42627;42.646;23.642;2022-07-29T07:59:28;2.85;;;1.70;;
56752;SDS011;42627;42.646;23.642;2022-07-29T08:01:29;3.10;;;1.65;;
56752;SDS011;42627;42.646;23.642;2022-07-29T08:03:29;3.35;;;1.88;;
56752;SDS011;42627;42.646;23.642;2022-07-29T08:05:30;3.30;;;1.63;;
56752;SDS011;42627;42.646;23.642;2022-07-29T08:07:31;3.88;;;2.20;;
56752;SDS011;42627;42.646;23.642;2022-07-29T08:09:31;3.40;;;1.80;;
56752;SDS011;42627;42.646;23.642;2022-07-29T08:11:33;3.08;;;1.80;;
56752;SDS011;42627;42.646;23.642;2022-07-29T08:13:37;3.15;;;1.73;;
56752;SDS011;42627;42.646;23.642;2022-07-29T08:15:39;3.28;;;1.88;;
56752;SDS011;42627;42.646;23.642;2022-07-29T08:17:56;3.70;;;1.98;;
56752;SDS011;42627;42.646;23.642;2022-07-29T08:19:57;3.50;;;1.55;;
56752;SDS011;42627;42.646;23.642;2022-07-29T08:21:58;3.13;;;1.83;;
56752;SDS011;42627;42.646;23.642;2022-07-29T08:23:58;2.30;;;1.33;;
56752;SDS011;42627;42.646;23.642;2022-07-29T08:26:17;3.20;;;1.52;;
56752;SDS011;42627;42.646;23.642;2022-07-29T08:28:19;3.72;;;1.80;;
56752;SDS011;42627;42.646;23.642;2022-07-29T08:30:20;2.60;;;1.40;;
56752;SDS011;42627;42.646;23.642;2022-07-29T08:32:20;3.13;;;1.58;;
56752;SDS011;42627;42.646;23.642;2022-07-29T08:34:21;2.28;;;1.23;;
56752;SDS011;42627;42.646;23.642;2022-07-29T08:36:22;3.03;;;1.75;;
56752;SDS011;42627;42.646;23.642;2022-07-29T08:38:22;2.83;;;1.50;;
56752;SDS011;42627;42.646;23.642;2022-07-29T08:40:23;2.00;;;1.40;;
56752;SDS011;42627;42.646;23.642;2022-07-29T08:42:24;2.40;;;1.17;;
56752;SDS011;42627;42.646;23.642;2022-07-29T08:44:25;2.65;;;1.40;;
56752;SDS011;42627;42.646;23.642;2022-07-29T08:46:38;2.53;;;1.42;;
56752;SDS011;42627;42.646;23.642;2022-07-29T08:51:08;2.72;;;1.40;;
56752;SDS011;42627;42.646;23.642;2022-07-29T08:53:15;2.92;;;1.58;;
56752;SDS011;42627;42.646;23.642;2022-07-29T08:55:17;1.70;;;0.98;;
56752;SDS011;42627;42.646;23.642;2022-07-29T08:57:18;2.50;;;1.33;;
56752;SDS011;42627;42.646;23.642;2022-07-29T08:59:22;2.25;;;1.20;;
56752;SDS011;42627;42.646;23.642;2022-07-29T09:01:24;2.42;;;1.13;;
56752;SDS011;42627;42.646;23.642;2022-07-29T09:03:27;2.45;;;1.48;;
56752;SDS011;42627;42.646;23.642;2022-07-29T09:05:30;2.30;;;0.93;;
56752;SDS011;42627;42.646;23.642;2022-07-29T09:07:32;2.45;;;1.30;;
56752;SDS011;42627;42.646;23.642;2022-07-29T09:09:33;2.35;;;1.30;;
56752;SDS011;42627;42.646;23.642;2022-07-29T09:11:34;2.03;;;1.30;;
56752;SDS011;42627;42.646;23.642;2022-07-29T09:13:35;1.75;;;0.95;;
56752;SDS011;42627;42.646;23.642;2022-07-29T09:15:36;2.03;;;1.15;;
56752;SDS011;42627;42.646;23.642;2022-07-29T09:22:40;2.88;;;1.30;;
56752;SDS011;42627;42.646;23.642;2022-07-29T09:24:42;2.30;;;1.27;;
56752;SDS011;42627;42.646;23.642;2022-07-29T09:26:44;3.33;;;1.35;;
56752;SDS011;42627;42.646;23.642;2022-07-29T09:28:46;2.17;;;1.35;;
56752;SDS011;42627;42.646;23.642;2022-07-29T09:30:57;2.17;;;1.13;;
56752;SDS011;42627;42.646;23.642;2022-07-29T09:32:59;4.28;;;1.05;;
56752;SDS011;42627;42.646;23.642;2022-07-29T09:35:20;2.53;;;1.33;;
56752;SDS011;42627;42.646;23.642;2022-07-29T09:37:43;1.48;;;1.00;;
56752;SDS011;42627;42.646;23.642;2022-07-29T09:39:45;1.73;;;1.15;;
56752;SDS011;42627;42.646;23.642;2022-07-29T09:41:49;2.00;;;1.20;;
56752;SDS011;42627;42.646;23.642;2022-07-29T09:43:59;2.55;;;1.20;;
56752;SDS011;42627;42.646;23.642;2022-07-29T09:46:12;2.30;;;1.38;;
56752;SDS011;42627;42.646;23.642;2022-07-29T09:48:20;2.50;;;1.20;;
56752;SDS011;42627;42.646;23.642;2022-07-29T09:50:22;3.80;;;1.40;;
56752;SDS011;42627;42.646;23.642;2022-07-29T09:57:27;3.13;;;1.60;;
56752;SDS011;42627;42.646;23.642;2022-07-29T09:59:28;2.80;;;1.50;;
56752;SDS011;42627;42.646;23.642;2022-07-29T10:01:30;2.28;;;1.40;;
56752;SDS011;42627;42.646;23.642;2022-07-29T10:03:31;3.08;;;1.60;;
56752;SDS011;42627;42.646;23.642;2022-07-29T10:05:32;2.42;;;1.60;;
56752;SDS011;42627;42.646;23.642;2022-07-29T10:07:53;2.88;;;1.70;;
56752;SDS011;42627;42.646;23.642;2022-07-29T10:09:55;3.67;;;1.77;;
56752;SDS011;42627;42.646;23.642;2022-07-29T10:12:06;2.65;;;1.55;;
56752;SDS011;42627;42.646;23.642;2022-07-29T10:14:08;2.67;;;1.60;;
56752;SDS011;42627;42.646;23.642;2022-07-29T10:16:10;2.70;;;1.55;;
56752;SDS011;42627;42.646;23.642;2022-07-29T10:18:12;2.05;;;1.48;;
56752;SDS011;42627;42.646;23.642;2022-07-29T10:20:13;3.28;;;2.08;;
56752;SDS011;42627;42.646;23.642;2022-07-29T10:22:14;4.15;;;1.95;;
56752;SDS011;42627;42.646;23.642;2022-07-29T10:24:15;3.55;;;1.85;;
56752;SDS011;42627;42.646;23.642;2022-07-29T10:26:19;3.67;;;1.80;;
56752;SDS011;42627;42.646;23.642;2022-07-29T10:28:22;2.72;;;1.48;;
56752;SDS011;42627;42.646;23.642;2022-07-29T10:30:25;3.03;;;1.83;;
56752;SDS011;42627;42.646;23.642;2022-07-29T10:44:30;2.65;;;1.63;;
56752;SDS011;42627;42.646;23.642;2022-07-29T10:46:34;2.53;;;1.63;;
56752;SDS011;42627;42.646;23.642;2022-07-29T10:50:59;3.72;;;2.00;;
56752;SDS011;42627;42.646;23.642;2022-07-29T10:53:00;4.00;;;1.80;;
56752;SDS011;42627;42.646;23.642;2022-07-29T11:01:29;2.35;;;1.45;;
56752;SDS011;42627;42.646;23.642;2022-07-29T11:08:17;5.00;;;1.80;;
56752;SDS011;42627;42.646;23.642;2022-07-29T11:10:25;3.00;;;1.67;;
56752;SDS011;42627;42.646;23.642;2022-07-29T11:17:05;2.70;;;1.50;;
56752;SDS011;42627;42.646;23.642;2022-07-29T11:23:34;2.60;;;1.67;;
56752;SDS011;42627;42.646;23.642;2022-07-29T11:28:09;2.60;;;1.40;;
56752;SDS011;42627;42.646;23.642;2022-07-29T11:30:11;3.95;;;1.85;;
56752;SDS011;42627;42.646;23.642;2022-07-29T11:32:13;2.92;;;1.73;;
56752;SDS011;42627;42.646;23.642;2022-07-29T11:36:29;4.38;;;2.28;;
56752;SDS011;42627;42.646;23.642;2022-07-29T11:38:30;3.58;;;2.15;;
56752;SDS011;42627;42.646;23.642;2022-07-29T11:46:11;2.90;;;1.95;;
56752;SDS011;42627;42.646;23.642;2022-07-29T11:48:16;2.85;;;1.95;;
56752;SDS011;42627;42.646;23.642;2022-07-29T11:50:26;3.13;;;1.73;;
56752;SDS011;42627;42.646;23.642;2022-07-29T11:52:34;3.95;;;2.08;;
56752;SDS011;42627;42.646;23.642;2022-07-29T11:54:37;3.17;;;2.00;;
56752;SDS011;42627;42.646;23.642;2022-07-29T11:56:39;6.30;;;2.10;;
56752;SDS011;42627;42.646;23.642;2022-07-29T11:58:43;2.70;;;1.85;;
56752;SDS011;42627;42.646;23.642;2022-07-29T12:00:46;4.50;;;1.95;;
56752;SDS011;42627;42.646;23.642;2022-07-29T12:02:47;3.17;;;1.73;;
56752;SDS011;42627;42.646;23.642;2022-07-29T12:04:52;2.58;;;1.50;;
56752;SDS011;42627;42.646;23.642;2022-07-29T12:06:54;2.88;;;1.75;;
56752;SDS011;42627;42.646;23.642;2022-07-29T12:08:55;3.75;;;1.70;;
56752;SDS011;42627;42.646;23.642;2022-07-29T12:10:56;2.15;;;1.55;;
56752;SDS011;42627;42.646;23.642;2022-07-29T12:12:57;4.60;;;1.80;;
56752;SDS011;42627;42.646;23.642;2022-07-29T12:15:10;3.83;;;1.98;;
56752;SDS011;42627;42.646;23.642;2022-07-29T12:17:26;3.42;;;1.70;;
56752;SDS011;42627;42.646;23.642;2022-07-29T12:19:27;3.75;;;2.10;;
56752;SDS011;42627;42.646;23.642;2022-07-29T12:21:29;3.00;;;1.50;;
56752;SDS011;42627;42.646;23.642;2022-07-29T12:23:31;2.83;;;1.50;;
56752;SDS011;42627;42.646;23.642;2022-07-29T12:25:33;4.55;;;1.95;;
56752;SDS011;42627;42.646;23.642;2022-07-29T12:27:35;2.58;;;1.60;;
56752;SDS011;42627;42.646;23.642;2022-07-29T12:29:37;4.28;;;2.00;;
56752;SDS011;42627;42.646;23.642;2022-07-29T12:31:38;4.18;;;1.90;;
56752;SDS011;42627;42.646;23.642;2022-07-29T12:33:39;3.30;;;1.80;;
56752;SDS011;42627;42.646;23.642;2022-07-29T12:35:47;2.80;;;1.85;;
56752;SDS011;42627;42.646;23.642;2022-07-29T12:37:50;3.08;;;1.80;;
56752;SDS011;42627;42.646;23.642;2022-07-29T12:39:52;3.40;;;1.83;;
56752;SDS011;42627;42.646;23.642;2022-07-29T12:41:53;3.80;;;2.03;;
56752;SDS011;42627;42.646;23.642;2022-07-29T12:43:54;3.45;;;1.88;;
56752;SDS011;42627;42.646;23.642;2022-07-29T12:46:13;3.03;;;1.83;;
56752;SDS011;42627;42.646;23.642;2022-07-29T12:53:09;3.20;;;1.58;;
56752;SDS011;42627;42.646;23.642;2022-07-29T12:55:11;3.50;;;1.95;;
56752;SDS011;42627;42.646;23.642;2022-07-29T12:57:12;3.50;;;1.80;;
56752;SDS011;42627;42.646;23.642;2022-07-29T12:59:17;3.00;;;1.92;;
56752;SDS011;42627;42.646;23.642;2022-07-29T13:01:19;3.78;;;2.10;;
56752;SDS011;42627;42.646;23.642;2022-07-29T13:03:20;3.30;;;1.77;;
56752;SDS011;42627;42.646;23.642;2022-07-29T13:05:38;3.80;;;1.70;;
56752;SDS011;42627;42.646;23.642;2022-07-29T13:07:39;3.72;;;2.05;;
56752;SDS011;42627;42.646;23.642;2022-07-29T13:09:41;3.28;;;2.05;;
56752;SDS011;42627;42.646;23.642;2022-07-29T13:11:43;3.78;;;1.95;;
56752;SDS011;42627;42.646;23.642;2022-07-29T13:13:51;2.83;;;1.70;;
56752;SDS011;42627;42.646;23.642;2022-07-29T13:16:04;3.60;;;1.63;;
56752;SDS011;42627;42.646;23.642;2022-07-29T13:18:25;3.45;;;1.75;;
56752;SDS011;42627;42.646;23.642;2022-07-29T13:20:28;3.05;;;1.55;;
56752;SDS011;42627;42.646;23.642;2022-07-29T13:22:29;3.85;;;1.70;;
56752;SDS011;42627;42.646;23.642;2022-07-29T13:24:31;3.08;;;1.65;;
56752;SDS011;42627;42.646;23.642;2022-07-29T13:26:32;3.72;;;1.50;;
56752;SDS011;42627;42.646;23.642;2022-07-29T13:28:33;3.97;;;1.60;;
56752;SDS011;42627;42.646;23.642;2022-07-29T13:30:38;4.30;;;1.90;;
56752;SDS011;42627;42.646;23.642;2022-07-29T13:32:40;3.17;;;1.65;;
56752;SDS011;42627;42.646;23.642;2022-07-29T13:34:45;3.53;;;1.73;;
56752;SDS011;42627;42.646;23.642;2022-07-29T13:37:04;2.95;;;1.52;;
56752;SDS011;42627;42.646;23.642;2022-07-29T13:39:05;3.53;;;2.22;;
56752;SDS011;42627;42.646;23.642;2022-07-29T13:41:06;4.00;;;2.05;;
56752;SDS011;42627;42.646;23.642;2022-07-29T13:43:11;3.60;;;1.80;;
56752;SDS011;42627;42.646;23.642;2022-07-29T13:49:59;2.55;;;1.40;;
56752;SDS011;42627;42.646;23.642;2022-07-29T13:52:02;3.28;;;1.90;;
56752;SDS011;42627;42.646;23.642;2022-07-29T13:54:04;4.88;;;1.42;;
56752;SDS011;42627;42.646;23.642;2022-07-29T13:56:08;3.45;;;1.60;;
56752;SDS011;42627;42.646;23.642;2022-07-29T13:58:09;3.38;;;1.77;;
56752;SDS011;42627;42.646;23.642;2022-07-29T14:00:13;3.65;;;2.10;;
56752;SDS011;42627;42.646;23.642;2022-07-29T14:02:17;3.30;;;1.77;;
56752;SDS011;42627;42.646;23.642;2022-07-29T14:04:23;2.85;;;1.70;;
56752;SDS011;42627;42.646;23.642;2022-07-29T14:06:24;3.97;;;1.92;;
56752;SDS011;42627;42.646;23.642;2022-07-29T14:08:25;2.55;;;1.70;;
56752;SDS011;42627;42.646;23.642;2022-07-29T14:10:27;4.05;;;2.00;;
56752;SDS011;42627;42.646;23.642;2022-07-29T14:12:28;4.15;;;2.17;;
56752;SDS011;42627;42.646;23.642;2022-07-29T14:17:07;3.25;;;1.90;;
56752;SDS011;42627;42.646;23.642;2022-07-29T14:19:14;2.92;;;1.95;;
56752;SDS011;42627;42.646;23.642;2022-07-29T14:21:15;3.15;;;1.75;;
56752;SDS011;42627;42.646;23.642;2022-07-29T14:23:16;3.88;;;2.08;;
56752;SDS011;42627;42.646;23.642;2022-07-29T14:25:20;3.72;;;2.10;;
56752;SDS011;42627;42.646;23.642;2022-07-29T14:27:21;7.43;;;2.47;;
56752;SDS011;42627;42.646;23.642;2022-07-29T14:29:22;3.88;;;1.92;;
56752;SDS011;42627;42.646;23.642;2022-07-29T14:31:23;3.45;;;1.73;;
56752;SDS011;42627;42.646;23.642;2022-07-29T14:33:33;4.43;;;2.20;;
56752;SDS011;42627;42.646;23.642;2022-07-29T14:35:34;3.90;;;1.98;;